sensor_id;sensor_type;location;lat;lon;timestamp;temperature;humidity
19031;DHT22;9648;51.130;13.978;2022-12-10T00:00:27;0.30;99.90
19031;DHT22;9648;51.130;13.978;2022-12-10T00:02:53;0.40;99.90
19031;DHT22;9648;51.130;13.978;2022-12-10T00:05:22;0.40;99.90
19031;DHT22;9648;51.130;13.978;2022-12-10T00:07:49;0.40;99.90
19031;DHT22;9648;51.130;13.978;2022-12-10T00:10:16;0.50;99.90
19031;DHT22;9648;51.130;13.978;2022-12-10T00:12:43;0.50;99.90
19031;DHT22;9648;51.130;13.978;2022-12-10T00:15:10;0.50;99.90
19031;DHT22;9648;51.130;13.978;2022-12-10T00:17:37;0.40;99.90
19031;DHT22;9648;51.130;13.978;2022-12-10T00:20:05;0.50;99.90
19031;DHT22;9648;51.130;13.978;2022-12-10T00:22:33;0.40;99.90
19031;DHT22;9648;51.130;13.978;2022-12-10T00:25:00;0.40;99.90
19031;DHT22;9648;51.130;13.978;2022-12-10T00:27:27;0.50;99.90
19031;DHT22;9648;51.130;13.978;2022-12-10T00:29:54;0.50;99.90
19031;DHT22;9648;51.130;13.978;2022-12-10T00:32:20;0.50;99.90
19031;DHT22;9648;51.130;13.978;2022-12-10T00:34:47;0.50;99.90
19031;DHT22;9648;51.130;13.978;2022-12-10T00:37:14;0.50;99.90
19031;DHT22;9648;51.130;13.978;2022-12-10T00:39:42;0.50;99.90
19031;DHT22;9648;51.130;13.978;2022-12-10T00:42:09;0.60;99.90
19031;DHT22;9648;51.130;13.978;2022-12-10T00:44:36;0.60;99.90
19031;DHT22;9648;51.130;13.978;2022-12-10T00:47:03;0.70;99.90
19031;DHT22;9648;51.130;13.978;2022-12-10T00:49:29;0.70;99.90
19031;DHT22;9648;51.130;13.978;2022-12-10T00:51:56;0.70;99.90
19031;DHT22;9648;51.130;13.978;2022-12-10T00:54:23;0.70;99.90
19031;DHT22;9648;51.130;13.978;2022-12-10T00:56:51;0.70;99.90
19031;DHT22;9648;51.130;13.978;2022-12-10T00:59:18;0.60;99.90
19031;DHT22;9648;51.130;13.978;2022-12-10T01:01:45;0.60;99.90
19031;DHT22;9648;51.130;13.978;2022-12-10T01:04:14;0.50;99.90
19031;DHT22;9648;51.130;13.978;2022-12-10T01:06:44;0.50;99.90
19031;DHT22;9648;51.130;13.978;2022-12-10T01:09:13;0.50;99.90
19031;DHT22;9648;51.130;13.978;2022-12-10T01:11:42;0.50;99.90
19031;DHT22;9648;51.130;13.978;2022-12-10T01:14:12;0.50;99.90
19031;DHT22;9648;51.130;13.978;2022-12-10T01:16:39;0.50;99.90
19031;DHT22;9648;51.130;13.978;2022-12-10T01:19:07;0.40;99.90
19031;DHT22;9648;51.130;13.978;2022-12-10T01:21:33;0.40;99.90
19031;DHT22;9648;51.130;13.978;2022-12-10T01:24:00;0.40;99.90
19031;DHT22;9648;51.130;13.978;2022-12-10T01:26:29;0.40;99.90
19031;DHT22;9648;51.130;13.978;2022-12-10T01:28:58;0.50;99.90
19031;DHT22;9648;51.130;13.978;2022-12-10T01:31:28;0.50;99.90
19031;DHT22;9648;51.130;13.978;2022-12-10T01:33:56;0.50;99.90
19031;DHT22;9648;51.130;13.978;2022-12-10T01:36:28;0.50;99.90
19031;DHT22;9648;51.130;13.978;2022-12-10T01:38:55;0.50;99.90
19031;DHT22;9648;51.130;13.978;2022-12-10T01:41:26;0.50;99.90
19031;DHT22;9648;51.130;13.978;2022-12-10T01:43:56;0.50;99.90
19031;DHT22;9648;51.130;13.978;2022-12-10T01:46:26;0.40;99.90
19031;DHT22;9648;51.130;13.978;2022-12-10T01:48:53;0.50;99.90
19031;DHT22;9648;51.130;13.978;2022-12-10T01:51:22;0.50;99.90
19031;DHT22;9648;51.130;13.978;2022-12-10T01:53:49;0.40;99.90
19031;DHT22;9648;51.130;13.978;2022-12-10T01:56:17;0.50;99.90
19031;DHT22;9648;51.130;13.978;2022-12-10T01:58:45;0.50;99.90
19031;DHT22;9648;51.130;13.978;2022-12-10T02:01:16;0.60;99.90
19031;DHT22;9648;51.130;13.978;2022-12-10T02:03:55;0.50;99.90
19031;DHT22;9648;51.130;13.978;2022-12-10T02:06:32;0.60;99.90
19031;DHT22;9648;51.130;13.978;2022-12-10T02:09:09;0.50;99.90
19031;DHT22;9648;51.130;13.978;2022-12-10T02:11:42;0.50;99.90
19031;DHT22;9648;51.130;13.978;2022-12-10T02:14:14;0.50;99.90
19031;DHT22;9648;51.130;13.978;2022-12-10T02:16:46;0.50;99.90
19031;DHT22;9648;51.130;13.978;2022-12-10T02:19:19;0.50;99.90
19031;DHT22;9648;51.130;13.978;2022-12-10T02:21:48;0.50;99.90
19031;DHT22;9648;51.130;13.978;2022-12-10T02:24:19;0.50;99.90
19031;DHT22;9648;51.130;13.978;2022-12-10T02:26:53;0.50;99.90
19031;DHT22;9648;51.130;13.978;2022-12-10T02:29:26;0.40;99.90
19031;DHT22;9648;51.130;13.978;2022-12-10T02:31:56;0.50;99.90
19031;DHT22;9648;51.130;13.978;2022-12-10T02:34:26;0.40;99.90
19031;DHT22;9648;51.130;13.978;2022-12-10T02:36:58;0.50;99.90
19031;DHT22;9648;51.130;13.978;2022-12-10T02:39:30;0.50;99.90
19031;DHT22;9648;51.130;13.978;2022-12-10T02:41:59;0.40;99.90
19031;DHT22;9648;51.130;13.978;2022-12-10T02:44:28;0.40;99.90
19031;DHT22;9648;51.130;13.978;2022-12-10T02:46:57;0.40;99.90
19031;DHT22;9648;51.130;13.978;2022-12-10T02:49:25;0.40;99.90
19031;DHT22;9648;51.130;13.978;2022-12-10T02:51:53;0.50;99.90
19031;DHT22;9648;51.130;13.978;2022-12-10T02:54:41;0.50;99.90
19031;DHT22;9648;51.130;13.978;2022-12-10T02:57:16;0.60;99.90
19031;DHT22;9648;51.130;13.978;2022-12-10T03:00:00;0.60;99.90
19031;DHT22;9648;51.130;13.978;2022-12-10T03:02:34;0.60;99.90
19031;DHT22;9648;51.130;13.978;2022-12-10T03:05:07;0.60;99.90
19031;DHT22;9648;51.130;13.978;2022-12-10T03:07:42;0.60;99.90
19031;DHT22;9648;51.130;13.978;2022-12-10T03:10:14;0.50;99.90
19031;DHT22;9648;51.130;13.978;2022-12-10T03:12:47;0.50;99.90
19031;DHT22;9648;51.130;13.978;2022-12-10T03:15:17;0.50;99.90
19031;DHT22;9648;51.130;13.978;2022-12-10T03:17:45;0.60;99.90
19031;DHT22;9648;51.130;13.978;2022-12-10T03:20:14;0.60;99.90
19031;DHT22;9648;51.130;13.978;2022-12-10T03:22:44;0.60;99.90
19031;DHT22;9648;51.130;13.978;2022-12-10T03:25:14;0.60;99.90
19031;DHT22;9648;51.130;13.978;2022-12-10T03:27:43;0.50;99.90
19031;DHT22;9648;51.130;13.978;2022-12-10T03:30:10;0.50;99.90
19031;DHT22;9648;51.130;13.978;2022-12-10T03:32:38;0.40;99.90
19031;DHT22;9648;51.130;13.978;2022-12-10T03:35:06;0.50;99.90
19031;DHT22;9648;51.130;13.978;2022-12-10T03:37:34;0.50;99.90
19031;DHT22;9648;51.130;13.978;2022-12-10T03:40:02;0.50;99.90
19031;DHT22;9648;51.130;13.978;2022-12-10T03:42:30;0.50;99.90
19031;DHT22;9648;51.130;13.978;2022-12-10T03:44:57;0.60;99.90
19031;DHT22;9648;51.130;13.978;2022-12-10T03:47:24;0.60;99.90
19031;DHT22;9648;51.130;13.978;2022-12-10T03:49:52;0.50;99.90
19031;DHT22;9648;51.130;13.978;2022-12-10T03:52:19;0.60;99.90
19031;DHT22;9648;51.130;13.978;2022-12-10T03:54:45;0.50;99.90
19031;DHT22;9648;51.130;13.978;2022-12-10T03:57:12;0.50;99.90
19031;DHT22;9648;51.130;13.978;2022-12-10T03:59:39;0.60;99.90
19031;DHT22;9648;51.130;13.978;2022-12-10T04:02:06;0.50;99.90
19031;DHT22;9648;51.130;13.978;2022-12-10T04:04:33;0.50;99.90
19031;DHT22;9648;51.130;13.978;2022-12-10T04:07:01;0.50;99.90
19031;DHT22;9648;51.130;13.978;2022-12-10T04:09:28;0.50;99.90
19031;DHT22;9648;51.130;13.978;2022-12-10T04:11:55;0.50;99.90
19031;DHT22;9648;51.130;13.978;2022-12-10T04:14:23;0.50;99.90
19031;DHT22;9648;51.130;13.978;2022-12-10T04:17:08;0.40;99.90
19031;DHT22;9648;51.130;13.978;2022-12-10T04:19:35;0.40;99.90
19031;DHT22;9648;51.130;13.978;2022-12-10T04:22:04;0.40;99.90
19031;DHT22;9648;51.130;13.978;2022-12-10T04:24:49;0.30;99.90
19031;DHT22;9648;51.130;13.978;2022-12-10T04:27:36;0.40;99.90
19031;DHT22;9648;51.130;13.978;2022-12-10T04:30:06;0.40;99.90
19031;DHT22;9648;51.130;13.978;2022-12-10T04:32:33;0.40;99.90
19031;DHT22;9648;51.130;13.978;2022-12-10T04:35:00;0.40;99.90
19031;DHT22;9648;51.130;13.978;2022-12-10T04:37:29;0.50;99.90
19031;DHT22;9648;51.130;13.978;2022-12-10T04:39:55;0.50;99.90
19031;DHT22;9648;51.130;13.978;2022-12-10T04:42:23;0.50;99.90
19031;DHT22;9648;51.130;13.978;2022-12-10T04:44:50;0.60;99.90
19031;DHT22;9648;51.130;13.978;2022-12-10T04:47:17;0.60;99.90
19031;DHT22;9648;51.130;13.978;2022-12-10T04:49:43;0.60;99.90
19031;DHT22;9648;51.130;13.978;2022-12-10T04:52:11;0.60;99.90
19031;DHT22;9648;51.130;13.978;2022-12-10T04:54:40;0.60;99.90
19031;DHT22;9648;51.130;13.978;2022-12-10T04:57:08;0.60;99.90
19031;DHT22;9648;51.130;13.978;2022-12-10T04:59:35;0.60;99.90
19031;DHT22;9648;51.130;13.978;2022-12-10T05:02:02;0.50;99.90
19031;DHT22;9648;51.130;13.978;2022-12-10T05:04:29;0.50;99.90
19031;DHT22;9648;51.130;13.978;2022-12-10T05:06:56;0.50;99.90
19031;DHT22;9648;51.130;13.978;2022-12-10T05:09:23;0.60;99.90
19031;DHT22;9648;51.130;13.978;2022-12-10T05:11:51;0.60;99.90
19031;DHT22;9648;51.130;13.978;2022-12-10T05:14:18;0.60;99.90
19031;DHT22;9648;51.130;13.978;2022-12-10T05:16:45;0.60;99.90
19031;DHT22;9648;51.130;13.978;2022-12-10T05:19:12;0.60;99.90
19031;DHT22;9648;51.130;13.978;2022-12-10T05:21:39;0.60;99.90
19031;DHT22;9648;51.130;13.978;2022-12-10T05:24:23;0.60;99.90
19031;DHT22;9648;51.130;13.978;2022-12-10T05:26:51;0.60;99.90
19031;DHT22;9648;51.130;13.978;2022-12-10T05:29:18;0.50;99.90
19031;DHT22;9648;51.130;13.978;2022-12-10T05:31:46;0.50;99.90
19031;DHT22;9648;51.130;13.978;2022-12-10T05:34:13;0.60;99.90
19031;DHT22;9648;51.130;13.978;2022-12-10T05:36:40;0.50;99.90
19031;DHT22;9648;51.130;13.978;2022-12-10T05:39:07;0.50;99.90
19031;DHT22;9648;51.130;13.978;2022-12-10T05:41:36;0.50;99.90
19031;DHT22;9648;51.130;13.978;2022-12-10T05:44:05;0.50;99.90
19031;DHT22;9648;51.130;13.978;2022-12-10T05:46:33;0.60;99.90
19031;DHT22;9648;51.130;13.978;2022-12-10T05:49:02;0.60;99.90
19031;DHT22;9648;51.130;13.978;2022-12-10T05:51:31;0.60;99.90
19031;DHT22;9648;51.130;13.978;2022-12-10T05:53:59;0.60;99.90
19031;DHT22;9648;51.130;13.978;2022-12-10T05:56:27;0.60;99.90
19031;DHT22;9648;51.130;13.978;2022-12-10T05:59:00;0.50;99.90
19031;DHT22;9648;51.130;13.978;2022-12-10T06:01:31;0.50;99.90
19031;DHT22;9648;51.130;13.978;2022-12-10T06:03:59;0.40;99.90
19031;DHT22;9648;51.130;13.978;2022-12-10T06:06:27;0.30;99.90
19031;DHT22;9648;51.130;13.978;2022-12-10T06:08:56;0.30;99.90
19031;DHT22;9648;51.130;13.978;2022-12-10T06:11:23;0.30;99.90
19031;DHT22;9648;51.130;13.978;2022-12-10T06:13:52;0.30;99.90
19031;DHT22;9648;51.130;13.978;2022-12-10T06:16:18;0.30;99.90
19031;DHT22;9648;51.130;13.978;2022-12-10T06:18:47;0.30;99.90
19031;DHT22;9648;51.130;13.978;2022-12-10T06:21:15;0.30;99.90
19031;DHT22;9648;51.130;13.978;2022-12-10T06:23:42;0.30;99.90
19031;DHT22;9648;51.130;13.978;2022-12-10T06:26:11;0.30;99.90
19031;DHT22;9648;51.130;13.978;2022-12-10T06:28:39;0.30;99.90
19031;DHT22;9648;51.130;13.978;2022-12-10T06:31:06;0.40;99.90
19031;DHT22;9648;51.130;13.978;2022-12-10T06:33:33;0.40;99.90
19031;DHT22;9648;51.130;13.978;2022-12-10T06:36:03;0.30;99.90
19031;DHT22;9648;51.130;13.978;2022-12-10T06:38:30;0.30;99.90
19031;DHT22;9648;51.130;13.978;2022-12-10T06:40:57;0.30;99.90
19031;DHT22;9648;51.130;13.978;2022-12-10T06:43:24;0.30;99.90
19031;DHT22;9648;51.130;13.978;2022-12-10T06:45:51;0.30;99.90
19031;DHT22;9648;51.130;13.978;2022-12-10T06:48:17;0.30;99.90
19031;DHT22;9648;51.130;13.978;2022-12-10T06:50:44;0.30;99.90
19031;DHT22;9648;51.130;13.978;2022-12-10T06:53:12;0.30;99.90
19031;DHT22;9648;51.130;13.978;2022-12-10T06:55:39;0.30;99.90
19031;DHT22;9648;51.130;13.978;2022-12-10T06:58:06;0.30;99.90
19031;DHT22;9648;51.130;13.978;2022-12-10T07:00:33;0.30;99.90
19031;DHT22;9648;51.130;13.978;2022-12-10T07:02:59;0.30;99.90
19031;DHT22;9648;51.130;13.978;2022-12-10T07:05:26;0.20;99.90
19031;DHT22;9648;51.130;13.978;2022-12-10T07:07:53;0.20;99.90
19031;DHT22;9648;51.130;13.978;2022-12-10T07:10:21;0.20;99.90
19031;DHT22;9648;51.130;13.978;2022-12-10T07:12:48;0.20;99.90
19031;DHT22;9648;51.130;13.978;2022-12-10T07:15:16;0.20;99.90
19031;DHT22;9648;51.130;13.978;2022-12-10T07:17:42;0.30;99.90
19031;DHT22;9648;51.130;13.978;2022-12-10T07:20:10;0.30;99.90
19031;DHT22;9648;51.130;13.978;2022-12-10T07:22:38;0.30;99.90
19031;DHT22;9648;51.130;13.978;2022-12-10T07:25:05;0.30;99.90
19031;DHT22;9648;51.130;13.978;2022-12-10T07:27:34;0.40;99.90
19031;DHT22;9648;51.130;13.978;2022-12-10T07:30:01;0.40;99.90
19031;DHT22;9648;51.130;13.978;2022-12-10T07:32:27;0.40;99.90
19031;DHT22;9648;51.130;13.978;2022-12-10T07:34:54;0.30;99.90
19031;DHT22;9648;51.130;13.978;2022-12-10T07:37:21;0.30;99.90
19031;DHT22;9648;51.130;13.978;2022-12-10T07:39:48;0.20;99.90
19031;DHT22;9648;51.130;13.978;2022-12-10T07:42:15;0.10;99.90
19031;DHT22;9648;51.130;13.978;2022-12-10T07:44:43;0.10;99.90
19031;DHT22;9648;51.130;13.978;2022-12-10T07:47:10;0.20;99.90
19031;DHT22;9648;51.130;13.978;2022-12-10T07:49:37;0.10;99.90
19031;DHT22;9648;51.130;13.978;2022-12-10T07:52:04;0.10;99.90
19031;DHT22;9648;51.130;13.978;2022-12-10T07:54:31;0.20;99.90
19031;DHT22;9648;51.130;13.978;2022-12-10T07:56:58;0.20;99.90
19031;DHT22;9648;51.130;13.978;2022-12-10T07:59:24;0.20;99.90
19031;DHT22;9648;51.130;13.978;2022-12-10T08:01:53;0.20;99.90
19031;DHT22;9648;51.130;13.978;2022-12-10T08:04:19;0.10;99.90
19031;DHT22;9648;51.130;13.978;2022-12-10T08:06:46;0.20;99.90
19031;DHT22;9648;51.130;13.978;2022-12-10T08:09:13;0.10;99.90
19031;DHT22;9648;51.130;13.978;2022-12-10T08:11:40;0.10;99.90
19031;DHT22;9648;51.130;13.978;2022-12-10T08:14:07;0.10;99.90
19031;DHT22;9648;51.130;13.978;2022-12-10T08:16:34;0.10;99.90
19031;DHT22;9648;51.130;13.978;2022-12-10T08:19:02;0.20;99.90
19031;DHT22;9648;51.130;13.978;2022-12-10T08:21:31;0.20;99.90
19031;DHT22;9648;51.130;13.978;2022-12-10T08:23:58;0.20;99.90
19031;DHT22;9648;51.130;13.978;2022-12-10T08:26:28;0.10;99.90
19031;DHT22;9648;51.130;13.978;2022-12-10T08:28:55;0.10;99.90
19031;DHT22;9648;51.130;13.978;2022-12-10T08:31:24;0.20;99.90
19031;DHT22;9648;51.130;13.978;2022-12-10T08:33:51;0.20;99.90
19031;DHT22;9648;51.130;13.978;2022-12-10T08:36:20;0.30;99.90
19031;DHT22;9648;51.130;13.978;2022-12-10T08:38:47;0.30;99.90
19031;DHT22;9648;51.130;13.978;2022-12-10T08:41:15;0.30;99.90
19031;DHT22;9648;51.130;13.978;2022-12-10T08:43:43;0.40;99.90
19031;DHT22;9648;51.130;13.978;2022-12-10T08:46:11;0.40;99.90
19031;DHT22;9648;51.130;13.978;2022-12-10T08:48:38;0.30;99.90
19031;DHT22;9648;51.130;13.978;2022-12-10T08:51:06;0.40;99.90
19031;DHT22;9648;51.130;13.978;2022-12-10T08:53:35;0.40;99.90
19031;DHT22;9648;51.130;13.978;2022-12-10T08:56:02;0.50;99.90
19031;DHT22;9648;51.130;13.978;2022-12-10T08:58:29;0.40;99.90
19031;DHT22;9648;51.130;13.978;2022-12-10T09:00:56;0.40;99.90
19031;DHT22;9648;51.130;13.978;2022-12-10T09:03:24;0.40;99.90
19031;DHT22;9648;51.130;13.978;2022-12-10T09:05:51;0.50;99.90
19031;DHT22;9648;51.130;13.978;2022-12-10T09:08:18;0.50;99.90
19031;DHT22;9648;51.130;13.978;2022-12-10T09:10:46;0.50;99.90
19031;DHT22;9648;51.130;13.978;2022-12-10T09:13:13;0.50;99.90
19031;DHT22;9648;51.130;13.978;2022-12-10T09:15:40;0.50;99.90
19031;DHT22;9648;51.130;13.978;2022-12-10T09:18:06;0.50;99.90
19031;DHT22;9648;51.130;13.978;2022-12-10T09:20:33;0.50;99.90
19031;DHT22;9648;51.130;13.978;2022-12-10T09:23:00;0.40;99.90
19031;DHT22;9648;51.130;13.978;2022-12-10T09:25:27;0.50;99.90
19031;DHT22;9648;51.130;13.978;2022-12-10T09:27:55;0.50;99.90
19031;DHT22;9648;51.130;13.978;2022-12-10T09:30:22;0.60;99.90
19031;DHT22;9648;51.130;13.978;2022-12-10T09:32:49;0.60;99.90
19031;DHT22;9648;51.130;13.978;2022-12-10T09:35:16;0.60;99.90
19031;DHT22;9648;51.130;13.978;2022-12-10T09:37:43;0.50;99.90
19031;DHT22;9648;51.130;13.978;2022-12-10T09:40:15;0.50;99.90
19031;DHT22;9648;51.130;13.978;2022-12-10T09:42:47;0.60;99.90
19031;DHT22;9648;51.130;13.978;2022-12-10T09:45:26;0.60;99.90
19031;DHT22;9648;51.130;13.978;2022-12-10T09:48:01;0.70;99.90
19031;DHT22;9648;51.130;13.978;2022-12-10T09:50:32;0.60;99.90
19031;DHT22;9648;51.130;13.978;2022-12-10T09:53:02;0.60;99.90
19031;DHT22;9648;51.130;13.978;2022-12-10T09:55:34;0.50;99.90
19031;DHT22;9648;51.130;13.978;2022-12-10T09:58:03;0.50;99.90
19031;DHT22;9648;51.130;13.978;2022-12-10T10:00:35;0.60;99.90
19031;DHT22;9648;51.130;13.978;2022-12-10T10:03:03;0.60;99.90
19031;DHT22;9648;51.130;13.978;2022-12-10T10:05:34;0.60;99.90
19031;DHT22;9648;51.130;13.978;2022-12-10T10:08:04;0.60;99.90
19031;DHT22;9648;51.130;13.978;2022-12-10T10:10:34;0.50;99.90
19031;DHT22;9648;51.130;13.978;2022-12-10T10:13:12;0.60;99.90
19031;DHT22;9648;51.130;13.978;2022-12-10T10:15:43;0.70;99.90
19031;DHT22;9648;51.130;13.978;2022-12-10T10:18:15;0.70;99.90
19031;DHT22;9648;51.130;13.978;2022-12-10T10:20:44;0.70;99.90
19031;DHT22;9648;51.130;13.978;2022-12-10T10:23:14;0.80;99.90
19031;DHT22;9648;51.130;13.978;2022-12-10T10:25:43;0.70;99.90
19031;DHT22;9648;51.130;13.978;2022-12-10T10:28:12;0.60;99.90
19031;DHT22;9648;51.130;13.978;2022-12-10T10:30:43;0.70;99.90
19031;DHT22;9648;51.130;13.978;2022-12-10T10:33:13;0.70;99.90
19031;DHT22;9648;51.130;13.978;2022-12-10T10:35:45;0.70;99.90
19031;DHT22;9648;51.130;13.978;2022-12-10T10:38:16;0.80;99.90
19031;DHT22;9648;51.130;13.978;2022-12-10T10:40:46;0.90;99.90
19031;DHT22;9648;51.130;13.978;2022-12-10T10:43:18;0.90;99.90
19031;DHT22;9648;51.130;13.978;2022-12-10T10:45:51;1.00;99.90
19031;DHT22;9648;51.130;13.978;2022-12-10T10:48:21;0.90;99.90
19031;DHT22;9648;51.130;13.978;2022-12-10T10:50:50;0.80;99.90
19031;DHT22;9648;51.130;13.978;2022-12-10T10:53:22;0.80;99.90
19031;DHT22;9648;51.130;13.978;2022-12-10T10:55:50;0.90;99.90
19031;DHT22;9648;51.130;13.978;2022-12-10T10:58:18;1.00;99.90
19031;DHT22;9648;51.130;13.978;2022-12-10T11:00:55;0.90;99.90
19031;DHT22;9648;51.130;13.978;2022-12-10T11:03:23;0.80;99.90
19031;DHT22;9648;51.130;13.978;2022-12-10T11:05:51;0.80;99.90
19031;DHT22;9648;51.130;13.978;2022-12-10T11:08:18;0.80;99.90
19031;DHT22;9648;51.130;13.978;2022-12-10T11:10:50;0.80;99.90
19031;DHT22;9648;51.130;13.978;2022-12-10T11:13:23;0.80;99.90
19031;DHT22;9648;51.130;13.978;2022-12-10T11:15:58;0.80;99.90
19031;DHT22;9648;51.130;13.978;2022-12-10T11:18:30;0.80;99.90
19031;DHT22;9648;51.130;13.978;2022-12-10T11:21:00;0.70;99.90
19031;DHT22;9648;51.130;13.978;2022-12-10T11:23:28;0.80;99.90
19031;DHT22;9648;51.130;13.978;2022-12-10T11:26:02;0.80;99.90
19031;DHT22;9648;51.130;13.978;2022-12-10T11:28:40;0.80;99.90
19031;DHT22;9648;51.130;13.978;2022-12-10T11:31:24;0.80;99.90
19031;DHT22;9648;51.130;13.978;2022-12-10T11:33:58;0.90;99.90
19031;DHT22;9648;51.130;13.978;2022-12-10T11:36:41;0.80;99.90
19031;DHT22;9648;51.130;13.978;2022-12-10T11:39:18;0.70;99.90
19031;DHT22;9648;51.130;13.978;2022-12-10T11:41:52;0.70;99.90
19031;DHT22;9648;51.130;13.978;2022-12-10T11:44:27;0.80;99.90
19031;DHT22;9648;51.130;13.978;2022-12-10T11:47:18;0.70;99.90
19031;DHT22;9648;51.130;13.978;2022-12-10T11:49:52;0.70;99.90
19031;DHT22;9648;51.130;13.978;2022-12-10T11:52:33;0.70;99.90
19031;DHT22;9648;51.130;13.978;2022-12-10T11:55:15;0.80;99.90
19031;DHT22;9648;51.130;13.978;2022-12-10T11:57:47;0.90;99.90
19031;DHT22;9648;51.130;13.978;2022-12-10T12:00:19;0.80;99.90
19031;DHT22;9648;51.130;13.978;2022-12-10T12:03:27;0.80;99.90
19031;DHT22;9648;51.130;13.978;2022-12-10T12:06:18;0.80;99.90
19031;DHT22;9648;51.130;13.978;2022-12-10T12:08:53;0.80;99.90
19031;DHT22;9648;51.130;13.978;2022-12-10T12:11:30;0.80;99.90
19031;DHT22;9648;51.130;13.978;2022-12-10T12:14:04;0.70;99.90
19031;DHT22;9648;51.130;13.978;2022-12-10T12:16:37;0.70;99.90
19031;DHT22;9648;51.130;13.978;2022-12-10T12:19:13;0.70;99.90
19031;DHT22;9648;51.130;13.978;2022-12-10T12:21:42;0.70;99.90
19031;DHT22;9648;51.130;13.978;2022-12-10T12:24:12;0.70;99.90
19031;DHT22;9648;51.130;13.978;2022-12-10T12:26:44;0.80;99.90
19031;DHT22;9648;51.130;13.978;2022-12-10T12:29:17;0.80;99.90
19031;DHT22;9648;51.130;13.978;2022-12-10T12:31:47;0.90;99.90
19031;DHT22;9648;51.130;13.978;2022-12-10T12:34:21;0.90;99.90
19031;DHT22;9648;51.130;13.978;2022-12-10T12:36:51;0.90;99.90
19031;DHT22;9648;51.130;13.978;2022-12-10T12:39:23;0.80;99.90
19031;DHT22;9648;51.130;13.978;2022-12-10T12:41:59;0.90;99.90
19031;DHT22;9648;51.130;13.978;2022-12-10T12:44:32;0.80;99.90
19031;DHT22;9648;51.130;13.978;2022-12-10T12:47:14;0.80;99.90
19031;DHT22;9648;51.130;13.978;2022-12-10T12:49:47;0.80;99.90
19031;DHT22;9648;51.130;13.978;2022-12-10T12:52:24;0.90;99.90
19031;DHT22;9648;51.130;13.978;2022-12-10T12:54:53;0.90;99.90
19031;DHT22;9648;51.130;13.978;2022-12-10T12:57:30;0.80;99.90
19031;DHT22;9648;51.130;13.978;2022-12-10T13:00:03;0.80;99.90
19031;DHT22;9648;51.130;13.978;2022-12-10T13:02:47;0.80;99.90
19031;DHT22;9648;51.130;13.978;2022-12-10T13:05:21;0.80;99.90
19031;DHT22;9648;51.130;13.978;2022-12-10T13:11:00;0.80;99.90
19031;DHT22;9648;51.130;13.978;2022-12-10T13:13:30;0.70;99.90
19031;DHT22;9648;51.130;13.978;2022-12-10T13:16:33;0.70;99.90
19031;DHT22;9648;51.130;13.978;2022-12-10T13:19:16;0.60;99.90
19031;DHT22;9648;51.130;13.978;2022-12-10T13:22:09;0.60;99.90
19031;DHT22;9648;51.130;13.978;2022-12-10T13:27:39;0.50;99.90
19031;DHT22;9648;51.130;13.978;2022-12-10T13:30:30;0.60;99.90
19031;DHT22;9648;51.130;13.978;2022-12-10T13:33:16;0.60;99.90
19031;DHT22;9648;51.130;13.978;2022-12-10T13:35:50;0.60;99.90
19031;DHT22;9648;51.130;13.978;2022-12-10T13:38:24;0.60;99.90
19031;DHT22;9648;51.130;13.978;2022-12-10T13:41:00;0.50;99.90
19031;DHT22;9648;51.130;13.978;2022-12-10T13:43:56;0.50;99.90
19031;DHT22;9648;51.130;13.978;2022-12-10T13:46:59;0.50;99.90
19031;DHT22;9648;51.130;13.978;2022-12-10T13:49:27;0.60;99.90
19031;DHT22;9648;51.130;13.978;2022-12-10T13:51:59;0.50;99.90
19031;DHT22;9648;51.130;13.978;2022-12-10T14:00:41;0.50;99.90
19031;DHT22;9648;51.130;13.978;2022-12-10T14:03:40;0.60;99.90
19031;DHT22;9648;51.130;13.978;2022-12-10T14:06:13;0.60;99.90
19031;DHT22;9648;51.130;13.978;2022-12-10T14:08:54;0.60;99.90
19031;DHT22;9648;51.130;13.978;2022-12-10T14:11:24;0.70;99.90
19031;DHT22;9648;51.130;13.978;2022-12-10T14:13:54;0.60;99.90
19031;DHT22;9648;51.130;13.978;2022-12-10T14:16:27;0.60;99.90
19031;DHT22;9648;51.130;13.978;2022-12-10T14:18:57;0.60;99.90
19031;DHT22;9648;51.130;13.978;2022-12-10T14:21:25;0.50;99.90
19031;DHT22;9648;51.130;13.978;2022-12-10T14:23:52;0.40;99.90
19031;DHT22;9648;51.130;13.978;2022-12-10T14:26:22;0.40;99.90
19031;DHT22;9648;51.130;13.978;2022-12-10T14:28:55;0.30;99.90
19031;DHT22;9648;51.130;13.978;2022-12-10T14:31:27;0.30;99.90
19031;DHT22;9648;51.130;13.978;2022-12-10T14:33:59;0.30;99.90
19031;DHT22;9648;51.130;13.978;2022-12-10T14:36:28;0.20;99.90
19031;DHT22;9648;51.130;13.978;2022-12-10T14:38:56;0.20;99.90
19031;DHT22;9648;51.130;13.978;2022-12-10T14:41:24;0.20;99.90
19031;DHT22;9648;51.130;13.978;2022-12-10T14:43:51;0.10;99.90
19031;DHT22;9648;51.130;13.978;2022-12-10T14:46:20;0.10;99.90
19031;DHT22;9648;51.130;13.978;2022-12-10T14:48:51;0.10;99.90
19031;DHT22;9648;51.130;13.978;2022-12-10T14:51:26;0.20;99.90
19031;DHT22;9648;51.130;13.978;2022-12-10T14:53:54;0.20;99.90
19031;DHT22;9648;51.130;13.978;2022-12-10T14:56:26;0.20;99.90
19031;DHT22;9648;51.130;13.978;2022-12-10T14:58:59;0.20;99.90
19031;DHT22;9648;51.130;13.978;2022-12-10T15:01:30;0.20;99.90
19031;DHT22;9648;51.130;13.978;2022-12-10T15:04:01;0.20;99.90
19031;DHT22;9648;51.130;13.978;2022-12-10T15:06:33;0.20;99.90
19031;DHT22;9648;51.130;13.978;2022-12-10T15:09:00;0.30;99.90
19031;DHT22;9648;51.130;13.978;2022-12-10T15:11:28;0.30;99.90
19031;DHT22;9648;51.130;13.978;2022-12-10T15:13:57;0.30;99.90
19031;DHT22;9648;51.130;13.978;2022-12-10T15:16:31;0.30;99.90
19031;DHT22;9648;51.130;13.978;2022-12-10T15:21:43;0.30;99.90
19031;DHT22;9648;51.130;13.978;2022-12-10T15:24:19;0.30;99.90
19031;DHT22;9648;51.130;13.978;2022-12-10T15:26:48;0.10;99.90
19031;DHT22;9648;51.130;13.978;2022-12-10T15:29:30;0.10;99.90
19031;DHT22;9648;51.130;13.978;2022-12-10T15:32:01;0.10;99.90
19031;DHT22;9648;51.130;13.978;2022-12-10T15:34:37;0.00;99.90
19031;DHT22;9648;51.130;13.978;2022-12-10T15:37:05;0.00;99.90
19031;DHT22;9648;51.130;13.978;2022-12-10T15:39:36;0.10;99.90
19031;DHT22;9648;51.130;13.978;2022-12-10T15:42:05;0.10;99.90
19031;DHT22;9648;51.130;13.978;2022-12-10T15:44:37;0.10;99.90
19031;DHT22;9648;51.130;13.978;2022-12-10T15:47:11;0.00;99.90
19031;DHT22;9648;51.130;13.978;2022-12-10T15:49:40;-0.10;99.90
19031;DHT22;9648;51.130;13.978;2022-12-10T15:52:11;0.00;99.90
19031;DHT22;9648;51.130;13.978;2022-12-10T15:54:40;0.00;99.90
19031;DHT22;9648;51.130;13.978;2022-12-10T15:57:12;0.00;99.90
19031;DHT22;9648;51.130;13.978;2022-12-10T15:59:40;0.10;99.90
19031;DHT22;9648;51.130;13.978;2022-12-10T16:02:19;0.10;99.90
19031;DHT22;9648;51.130;13.978;2022-12-10T16:04:51;0.10;99.90
19031;DHT22;9648;51.130;13.978;2022-12-10T16:07:19;0.00;99.90
19031;DHT22;9648;51.130;13.978;2022-12-10T16:09:46;0.00;99.90
19031;DHT22;9648;51.130;13.978;2022-12-10T16:12:13;0.00;99.90
19031;DHT22;9648;51.130;13.978;2022-12-10T16:14:46;-0.10;99.90
19031;DHT22;9648;51.130;13.978;2022-12-10T16:17:14;-0.10;99.90
19031;DHT22;9648;51.130;13.978;2022-12-10T16:19:41;-0.20;99.90